地図

経路データ

SID SEASON NUMBER BASIN SUBBASIN NAME ISO_TIME NATURE LAT LON WMO_WIND WMO_PRES WMO_AGENCY TRACK_TYPE DIST2LAND LANDFALL IFLAG USA_AGENCY USA_ATCF_ID USA_LAT USA_LON USA_RECORD USA_STATUS USA_WIND USA_PRES USA_SSHS USA_R34_NE USA_R34_SE USA_R34_SW USA_R34_NW USA_R50_NE USA_R50_SE USA_R50_SW USA_R50_NW USA_R64_NE USA_R64_SE USA_R64_SW USA_R64_NW USA_POCI USA_ROCI USA_RMW USA_EYE TOKYO_LAT TOKYO_LON TOKYO_GRADE TOKYO_WIND TOKYO_PRES TOKYO_R50_DIR TOKYO_R50_LONG TOKYO_R50_SHORT TOKYO_R30_DIR TOKYO_R30_LONG TOKYO_R30_SHORT TOKYO_LAND CMA_LAT CMA_LON CMA_CAT CMA_WIND CMA_PRES HKO_LAT HKO_LON HKO_CAT HKO_WIND HKO_PRES NEWDELHI_LAT NEWDELHI_LON NEWDELHI_GRADE NEWDELHI_WIND NEWDELHI_PRES NEWDELHI_CI NEWDELHI_DP NEWDELHI_POCI REUNION_LAT REUNION_LON REUNION_TYPE REUNION_WIND REUNION_PRES REUNION_TNUM REUNION_CI REUNION_RMW REUNION_R34_NE REUNION_R34_SE REUNION_R34_SW REUNION_R34_NW REUNION_R50_NE REUNION_R50_SE REUNION_R50_SW REUNION_R50_NW REUNION_R64_NE REUNION_R64_SE REUNION_R64_SW REUNION_R64_NW BOM_LAT BOM_LON BOM_TYPE BOM_WIND BOM_PRES BOM_TNUM BOM_CI BOM_RMW BOM_R34_NE BOM_R34_SE BOM_R34_SW BOM_R34_NW BOM_R50_NE BOM_R50_SE BOM_R50_SW BOM_R50_NW BOM_R64_NE BOM_R64_SE BOM_R64_SW BOM_R64_NW BOM_ROCI BOM_POCI BOM_EYE BOM_POS_METHOD BOM_PRES_METHOD NADI_LAT NADI_LON NADI_CAT NADI_WIND NADI_PRES WELLINGTON_LAT WELLINGTON_LON WELLINGTON_WIND WELLINGTON_PRES DS824_LAT DS824_LON DS824_STAGE DS824_WIND DS824_PRES TD9636_LAT TD9636_LON TD9636_STAGE TD9636_WIND TD9636_PRES TD9635_LAT TD9635_LON TD9635_WIND TD9635_PRES TD9635_ROCI NEUMANN_LAT NEUMANN_LON NEUMANN_CLASS NEUMANN_WIND NEUMANN_PRES MLC_LAT MLC_LON MLC_CLASS MLC_WIND MLC_PRES USA_GUST BOM_GUST BOM_GUST_PER REUNION_GUST REUNION_GUST_PER USA_SEAHGT USA_SEARAD_NE USA_SEARAD_SE USA_SEARAD_SW USA_SEARAD_NW STORM_SPEED STORM_DIR
1952021S11140 1952 8 SP EA NOT_NAMED 1952-01-20 23:00:00 NR -11.4000 139.800 main 225 215 __________O___ -1 -11.4000 139.800 2 10 93
1952021S11140 1952 8 SP EA NOT_NAMED 1952-01-21 00:00:00 TS -11.4082 139.978 main 205 161 O________OP___ jtwc_sh SH101952 -11.4000 140.000 -1 -11.4000 140.000 TC -11.4164 139.956 2 9 95
1952021S11140 1952 8 SP EA NOT_NAMED 1952-01-21 03:00:00 TS -11.4554 140.441 main 161 117 P________PP___ SH101952 -11.4451 140.457 -1 -11.4451 140.457 TC -11.4690 140.420 2 9 97
1952021S11140 1952 8 SP EA NOT_NAMED 1952-01-21 06:00:00 TS -11.5138 140.890 main 117 78 O________OP___ jtwc_sh SH101952 -11.5000 140.900 -1 -11.5000 140.900 TC -11.5344 140.876 2 9 99
1952021S11140 1952 8 SP EA NOT_NAMED 1952-01-21 09:00:00 TS -11.5926 141.316 main 78 44 P________PP___ SH101952 -11.5774 141.315 -1 -11.5774 141.315 TC -11.6230 141.317 2 8 103
1952021S11140 1952 8 SP EA NOT_NAMED 1952-01-21 11:00:00 TS -11.6684 141.583 main 44 34 P________PO___ SH101952 -11.6526 141.575 -1 -11.6526 141.575 TC -11.7000 141.600 2 8 107
1952021S11140 1952 8 SP EA NOT_NAMED 1952-01-21 12:00:00 TS -11.7150 141.712 main 34 0 O________OP___ jtwc_sh SH101952 -11.7000 141.700 -1 -11.7000 141.700 TC -11.7450 141.737 2 8 114
1952021S11140 1952 8 SP EA NOT_NAMED 1952-01-21 15:00:00 TS -11.8830 142.086 main 0 0 P________PP___ SH101952 -11.8700 142.065 -1 -11.8700 142.065 TC -11.9091 142.127 2 8 119
1952021S11140 1952 8 SP EA NOT_NAMED 1952-01-21 18:00:00 TS -12.1072 142.424 main 0 0 O________OP___ jtwc_sh SH101952 -12.1000 142.400 -1 -12.1000 142.400 TC -12.1215 142.471 2 8 127
1952021S11140 1952 8 SP EA NOT_NAMED 1952-01-21 21:00:00 TS -12.3712 142.743 main 0 0 P________PP___ SH101952 -12.3625 142.737 -1 -12.3625 142.737 TC -12.3886 142.753 2 8 135
1952021S11140 1952 8 SP EA NOT_NAMED 1952-01-21 23:00:00 TS -12.5851 142.917 main 0 0 P________PO___ SH101952 -12.5776 142.925 -1 -12.5776 142.925 TC -12.6000 142.900 2 8 144
1952021S11140 1952 8 SP EA NOT_NAMED 1952-01-22 00:00:00 TS -12.7053 142.990 main 0 0 O________OP___ jtwc_sh SH101952 -12.7000 143.000 -1 -12.7000 143.000 TC -12.7160 142.970 2 9 158
1952021S11140 1952 8 SP EA NOT_NAMED 1952-01-22 03:00:00 TS -13.1262 143.139 main 0 0 P________PP___ SH101952 -13.1349 143.145 -1 -13.1349 143.145 TC -13.1086 143.128 2 9 167
1952021S11140 1952 8 SP EA NOT_NAMED 1952-01-22 06:00:00 TS -13.5821 143.204 main 0 0 O________OP___ jtwc_sh SH101952 -13.6000 143.200 -1 -13.6000 143.200 TC -13.5464 143.213 2 9 174
1952021S11140 1952 8 SP EA NOT_NAMED 1952-01-22 09:00:00 TS -14.0004 143.234 main 0 0 P________PP___ SH101952 -14.0000 143.237 -1 -14.0000 143.237 TC -14.0013 143.227 2 8 0
1952021S11140 1952 8 SP EA NOT_NAMED 1952-01-22 11:00:00 TS -14.2757 143.215 main 0 0 P________PO___ SH101952 -14.2636 143.222 -1 -14.2636 143.222 TC -14.3000 143.200 2 8 186
1952021S11140 1952 8 SP EA NOT_NAMED 1952-01-22 12:00:00 TS -14.4134 143.196 main 0 0 O________OP___ jtwc_sh SH101952 -14.4000 143.200 -1 -14.4000 143.200 TC -14.4403 143.189 2 9 191
1952021S11140 1952 8 SP EA NOT_NAMED 1952-01-22 15:00:00 TS -14.8574 143.090 main 0 0 P________PP___ SH101952 -14.8575 143.080 -1 -14.8575 143.080 TC -14.8573 143.109 2 9 197
1952021S11140 1952 8 SP EA NOT_NAMED 1952-01-22 18:00:00 TS -15.2879 142.922 main 0 0 O________OP___ jtwc_sh SH101952 -15.3000 142.900 -1 -15.3000 142.900 TC -15.2636 142.965 2 9 203
1952021S11140 1952 8 SP EA NOT_NAMED 1952-01-22 21:00:00 TS -15.6609 142.736 main 0 0 P________PP___ SH101952 -15.6649 142.722 -1 -15.6649 142.722 TC -15.6529 142.764 2 8 208
1952021S11140 1952 8 SP EA NOT_NAMED 1952-01-22 23:00:00 TS -15.8924 142.587 main 0 0 P________PO___ SH101952 -15.8885 142.581 -1 -15.8885 142.581 TC -15.9000 142.600 2 8 212
1952021S11140 1952 8 SP EA NOT_NAMED 1952-01-23 00:00:00 TS -16.0065 142.507 main 0 0 O________OP___ jtwc_sh SH101952 -16.0000 142.500 -1 -16.0000 142.500 TC -16.0196 142.522 2 9 216
1952021S11140 1952 8 SP EA NOT_NAMED 1952-01-23 03:00:00 TS -16.3591 142.233 main 0 0 P________PP___ SH101952 -16.3575 142.222 -1 -16.3575 142.222 TC -16.3622 142.254 2 9 220
1952021S11140 1952 8 SP EA NOT_NAMED 1952-01-23 06:00:00 TS -16.6953 141.912 main 0 0 O________OP___ jtwc_sh SH101952 -16.7000 141.900 -1 -16.7000 141.900 TC -16.6858 141.935 2 9 224
1952021S11140 1952 8 SP EA NOT_NAMED 1952-01-23 09:00:00 TS -17.0038 141.576 main 0 0 P________PP___ SH101952 -17.0073 141.580 -1 -17.0073 141.580 TC -16.9967 141.569 2 9 228
1952021S11140 1952 8 SP EA NOT_NAMED 1952-01-23 11:00:00 TS -17.2017 141.324 main 0 0 P________PO___ SH101952 -17.2025 141.336 -1 -17.2025 141.336 TC -17.2000 141.300 2 10 231
1952021S11140 1952 8 SP EA NOT_NAMED 1952-01-23 12:00:00 TS -17.3020 141.186 main 0 0 O________OP___ jtwc_sh SH101952 -17.3000 141.200 -1 -17.3000 141.200 TC -17.3059 141.159 2 11 235
1952021S11140 1952 8 SP EA NOT_NAMED 1952-01-23 15:00:00 TS -17.6064 140.711 main 0 0 P________PP___ SH101952 -17.6001 140.715 -1 -17.6001 140.715 TC -17.6190 140.703 2 11 237
1952021S11140 1952 8 SP EA NOT_NAMED 1952-01-23 18:00:00 TS -17.9076 140.205 main 0 0 O________OP___ jtwc_sh SH101952 -17.9000 140.200 -1 -17.9000 140.200 TC -17.9229 140.215 2 11 237
1952021S11140 1952 8 SP EA NOT_NAMED 1952-01-23 21:00:00 TS -18.2096 139.735 main 0 0 P________PP___ SH101952 -18.2073 139.742 -1 -18.2073 139.742 TC -18.2142 139.721 2 11 236
1952021S11140 1952 8 SP EA NOT_NAMED 1952-01-23 23:00:00 TS -18.4038 139.432 main 0 0 P________PO___ SH101952 -18.4056 139.447 -1 -18.4056 139.447 TC -18.4000 139.400 2 10 236
1952021S11140 1952 8 SP EA NOT_NAMED 1952-01-24 00:00:00 TS -18.4937 139.285 main 0 0 O________OP___ jtwc_sh SH101952 -18.5000 139.300 -1 -18.5000 139.300 TC -18.4812 139.256 2 10 239
1952021S11140 1952 8 SP EA NOT_NAMED 1952-01-24 03:00:00 TS -18.7417 138.846 main 0 0 P________PP___ SH101952 -18.7574 138.850 -1 -18.7574 138.850 TC -18.7102 138.837 2 10 240
1952021S11140 1952 8 SP EA NOT_NAMED 1952-01-24 06:00:00 TS -18.9799 138.408 main 0 0 O________OP___ jtwc_sh SH101952 -19.0000 138.400 -1 -19.0000 138.400 TC -18.9398 138.425 2 10 240
1952021S11140 1952 8 SP EA NOT_NAMED 1952-01-24 09:00:00 TS -19.2176 137.971 main 0 0 P________PP___ SH101952 -19.2273 137.957 -1 -19.2273 137.957 TC -19.1980 138.000 2 10 239
1952021S11140 1952 8 SP EA NOT_NAMED 1952-01-24 11:00:00 TS -19.3996 137.670 main 0 0 P________PO___ SH101952 -19.3994 137.655 -1 -19.3994 137.655 TC -19.4000 137.700 2 10 236
1952021S11140 1952 8 SP EA NOT_NAMED 1952-01-24 12:00:00 TS -19.5051 137.517 main 0 0 O________OP___ jtwc_sh SH101952 -19.5000 137.500 -1 -19.5000 137.500 TC -19.5127 137.543 2 12 231
1952021S11140 1952 8 SP EA NOT_NAMED 1952-01-24 15:00:00 TS -19.8822 137.029 main 0 0 P________PP___ SH101952 -19.8703 137.011 -1 -19.8703 137.011 TC -19.8940 137.047 2 12 229
1952021S11140 1952 8 SP EA NOT_NAMED 1952-01-24 18:00:00 TS -20.3148 136.512 main 0 0 O________OP___ jtwc_sh SH101952 -20.3000 136.500 -1 -20.3000 136.500 TC -20.3247 136.520 2 13 228
1952021S11140 1952 8 SP EA NOT_NAMED 1952-01-24 21:00:00 NR -20.7856 135.972 main 0 0 __________P___ SH101952 -1 TC -20.7856 135.972 2 14 227
1952021S11140 1952 8 SP EA NOT_NAMED 1952-01-24 23:00:00 NR -21.1000 135.600 main 0 __________O___ SH101952 -1 TC -21.1000 135.600 2 14 228

デジタル台風データ・検索

IBTrACS Databaseについて

本データベースは、米国NOAAが公開する1842年以降の世界の熱帯低気圧のベストトラックデータアーカイブInternational Best Track Archive for Climate Stewardship (IBTrACS)を、ウェブで閲覧しやすい形式に変換したものです。

最終更新日:2021-12-08